Time;durP1;ratioP1;P1;durP2;ratioP2;P2;SDS_P1;SDS_P2;PMS_P1;PMS_P2;Temp;Humidity;BMP_temperature;BMP_pressure;BME280_temperature;BME280_humidity;BME280_pressure;Samples;Min_cycle;Max_cycle;Signal;HPM_P1;HPM_P2
2021/12/21 00:01:04;;;;;;;5.67;3.20;;;;;;;1.87;100.00;102237.25;4962068;28;20337;-56
2021/12/21 00:03:30;;;;;;;3.73;2.70;;;;;;;1.79;100.00;102232.41;4961425;28;20347;-54
2021/12/21 00:05:57;;;;;;;3.77;2.60;;;;;;;1.79;100.00;102237.56;4960625;28;20321;-53
2021/12/21 00:08:23;;;;;;;3.13;2.90;;;;;;;1.80;100.00;102229.03;4963440;28;20246;-53
2021/12/21 00:10:49;;;;;;;7.40;3.17;;;;;;;1.84;100.00;102236.16;4964649;28;20712;-55
2021/12/21 00:13:39;;;;;;;3.50;3.20;;;;;;;1.90;100.00;102241.72;4966604;28;20626;-54
2021/12/21 00:16:16;;;;;;;4.10;3.00;;;;;;;1.83;100.00;102224.91;4960304;28;20234;-55
2021/12/21 00:18:50;;;;;;;4.57;3.50;;;;;;;1.89;100.00;102214.91;4966075;28;20237;-54
2021/12/21 00:21:23;;;;;;;5.07;3.60;;;;;;;1.82;100.00;102215.34;4962058;28;21209;-54
2021/12/21 00:23:52;;;;;;;5.93;3.57;;;;;;;1.71;100.00;102219.00;4969295;28;20234;-56
2021/12/21 00:26:21;;;;;;;3.30;2.90;;;;;;;1.69;100.00;102220.63;4969516;28;20237;-53
2021/12/21 00:28:55;;;;;;;3.20;2.90;;;;;;;1.67;100.00;102219.63;4966147;28;20244;-54
2021/12/21 00:31:23;;;;;;;4.97;3.33;;;;;;;1.74;100.00;102219.19;4958727;28;20706;-54
2021/12/21 00:33:49;;;;;;;3.40;3.10;;;;;;;1.75;100.00;102220.97;4960839;28;20715;-53
2021/12/21 00:36:17;;;;;;;7.60;3.50;;;;;;;1.79;100.00;102228.16;4956438;28;21295;-54
2021/12/21 00:38:43;;;;;;;5.33;3.27;;;;;;;1.87;100.00;102226.88;4966045;28;20241;-55
2021/12/21 00:41:09;;;;;;;4.00;2.80;;;;;;;1.91;100.00;102222.78;5002832;23;20287;-57
2021/12/21 00:43:36;;;;;;;6.60;3.60;;;;;;;1.94;100.00;102222.94;4991994;28;20284;-57
2021/12/21 00:46:04;;;;;;;8.60;3.53;;;;;;;2.00;100.00;102223.31;4998515;28;20258;-59
2021/12/21 00:48:34;;;;;;;3.30;2.80;;;;;;;1.96;100.00;102230.81;4997982;28;20271;-57
2021/12/21 00:51:01;;;;;;;3.60;3.00;;;;;;;1.96;100.00;102225.63;4996759;28;20745;-57
2021/12/21 00:53:28;;;;;;;5.80;4.13;;;;;;;1.91;100.00;102221.06;4997340;28;20306;-55
2021/12/21 00:55:55;;;;;;;6.03;3.33;;;;;;;1.92;100.00;102219.38;4996790;28;20243;-57
2021/12/21 00:58:22;;;;;;;5.40;4.00;;;;;;;1.90;100.00;102214.13;4994912;28;20236;-56
2021/12/21 01:00:49;;;;;;;8.17;3.93;;;;;;;1.91;100.00;102217.59;4993824;28;20315;-53
2021/12/21 01:03:16;;;;;;;5.63;3.30;;;;;;;1.86;100.00;102213.81;4996992;28;20327;-55
2021/12/21 01:05:50;;;;;;;4.97;3.80;;;;;;;1.78;100.00;102205.63;4997578;28;20671;-55
2021/12/21 01:08:21;;;;;;;4.73;3.97;;;;;;;1.56;100.00;102207.75;4998917;28;20618;-56
2021/12/21 01:14:00;;;;;;;5.47;3.20;;;;;;;1.41;100.00;102203.47;5062297;27;20990;-54
2021/12/21 01:16:35;;;;;;;6.63;3.60;;;;;;;1.43;100.00;102206.13;5070617;28;20274;-54
2021/12/21 01:19:14;;;;;;;7.47;4.37;;;;;;;1.47;100.00;102202.91;5061799;28;20568;-52
2021/12/21 01:21:47;;;;;;;5.60;4.40;;;;;;;1.47;100.00;102200.31;5062079;28;20222;-53
2021/12/21 01:27:25;;;;;;;7.07;4.00;;;;;;;1.46;100.00;102205.44;5062242;28;20254;-53
2021/12/21 01:30:04;;;;;;;10.07;4.30;;;;;;;1.45;100.00;102201.94;5081557;28;20775;-53
2021/12/21 01:32:45;;;;;;;4.40;3.70;;;;;;;1.42;100.00;102205.25;5049427;28;20307;-53
2021/12/21 01:35:16;;;;;;;4.43;4.03;;;;;;;1.47;100.00;102202.91;5072646;28;20315;-57
2021/12/21 01:37:53;;;;;;;7.27;4.70;;;;;;;1.55;100.00;102206.88;5076726;28;20237;-55
2021/12/21 01:40:30;;;;;;;4.47;3.83;;;;;;;1.53;100.00;102202.41;5072209;28;20316;-56
2021/12/21 01:43:14;;;;;;;7.90;4.77;;;;;;;1.51;100.00;102199.75;5070375;28;20243;-54
2021/12/21 01:51:11;;;;;;;5.13;4.33;;;;;;;1.45;100.00;102191.59;5069900;28;20303;-55
2021/12/21 01:53:38;;;;;;;5.47;4.83;;;;;;;1.45;100.00;102193.31;5060315;28;20329;-56
2021/12/21 01:56:05;;;;;;;11.87;4.67;;;;;;;1.53;100.00;102194.63;5060234;28;20526;-55
2021/12/21 01:58:33;;;;;;;5.53;3.50;;;;;;;1.52;100.00;102192.88;5058901;28;20378;-54
2021/12/21 02:01:01;;;;;;;11.97;4.60;;;;;;;1.62;100.00;102195.19;5068158;28;20237;-54
2021/12/21 02:03:28;;;;;;;7.43;4.90;;;;;;;1.57;100.00;102194.00;5072740;28;20261;-54
2021/12/21 02:05:54;;;;;;;8.97;5.33;;;;;;;1.60;100.00;102189.91;5062710;28;20234;-52
2021/12/21 02:08:20;;;;;;;5.00;4.50;;;;;;;1.60;100.00;102187.31;5055463;28;20230;-56
2021/12/21 02:10:47;;;;;;;7.40;5.00;;;;;;;1.56;100.00;102182.78;5055656;28;20722;-55
2021/12/21 02:13:13;;;;;;;8.47;4.97;;;;;;;1.53;100.00;102186.88;5071931;28;20334;-54
2021/12/21 02:15:39;;;;;;;6.27;5.40;;;;;;;1.68;100.00;102182.59;5058538;28;20268;-54
2021/12/21 02:18:33;;;;;;;9.00;5.30;;;;;;;1.63;100.00;102178.84;5061912;28;20731;-56
2021/12/21 02:21:06;;;;;;;7.70;5.37;;;;;;;1.69;100.00;102171.44;5070984;28;20222;-55
2021/12/21 02:23:35;;;;;;;6.97;5.43;;;;;;;1.81;100.00;102179.03;5058252;28;20323;-53
2021/12/21 02:26:24;;;;;;;5.00;4.60;;;;;;;1.72;100.00;102184.56;5058783;28;20246;-55
2021/12/21 02:31:42;;;;;;;7.43;4.83;;;;;;;1.78;100.00;102179.72;5031573;28;20228;-55
2021/12/21 02:34:09;;;;;;;9.33;5.40;;;;;;;1.70;100.00;102180.09;5041793;28;20665;-56
2021/12/21 02:36:38;;;;;;;5.70;5.10;;;;;;;1.67;100.00;102175.63;5044897;28;20312;-55
2021/12/21 02:39:05;;;;;;;6.00;4.90;;;;;;;1.66;100.00;102179.03;5054477;28;20261;-54
2021/12/21 02:41:32;;;;;;;8.00;5.80;;;;;;;1.65;100.00;102179.81;5057350;28;20285;-54
2021/12/21 02:43:58;;;;;;;12.70;6.83;;;;;;;1.61;100.00;102170.97;5058891;28;20299;-54
2021/12/21 02:46:25;;;;;;;9.93;6.87;;;;;;;1.56;100.00;102166.34;5064063;28;20260;-55
2021/12/21 02:48:52;;;;;;;9.30;7.33;;;;;;;1.49;100.00;102164.22;5059253;28;20263;-55
2021/12/21 02:51:19;;;;;;;14.57;6.83;;;;;;;1.43;100.00;102165.63;5059807;28;20300;-52
2021/12/21 02:53:47;;;;;;;8.60;7.67;;;;;;;1.41;100.00;102162.06;5061200;28;20380;-55
2021/12/21 02:56:14;;;;;;;9.97;8.23;;;;;;;1.37;100.00;102165.28;5061209;28;20247;-53
2021/12/21 02:58:40;;;;;;;12.87;6.77;;;;;;;1.43;100.00;102163.03;5061379;28;20397;-56
2021/12/21 03:01:08;;;;;;;8.70;6.47;;;;;;;1.49;100.00;102165.09;5061081;28;20279;-53
2021/12/21 03:03:35;;;;;;;11.80;7.03;;;;;;;1.55;100.00;102167.16;5059969;28;20708;-53
2021/12/21 03:06:04;;;;;;;10.77;7.00;;;;;;;1.56;100.00;102166.34;5060256;28;20238;-53
2021/12/21 03:08:38;;;;;;;13.43;6.77;;;;;;;1.58;100.00;102162.13;5060865;28;20230;-55
2021/12/21 03:11:13;;;;;;;9.03;7.27;;;;;;;1.59;100.00;102154.47;5062067;28;20231;-53
2021/12/21 03:13:55;;;;;;;12.43;6.97;;;;;;;1.56;100.00;102156.00;5061122;28;20345;-53
2021/12/21 03:16:22;;;;;;;10.67;7.40;;;;;;;1.48;100.00;102162.44;5061192;28;20232;-55
2021/12/21 03:18:48;;;;;;;9.13;5.70;;;;;;;1.46;100.00;102164.91;5062178;28;20324;-54
2021/12/21 03:21:15;;;;;;;10.43;6.27;;;;;;;1.45;100.00;102162.25;5062379;28;20800;-55
2021/12/21 03:23:41;;;;;;;10.53;7.03;;;;;;;1.46;100.00;102153.66;5062163;28;20285;-56
2021/12/21 03:26:09;;;;;;;14.20;6.87;;;;;;;1.41;100.00;102161.19;5064031;28;20242;-55
2021/12/21 03:28:35;;;;;;;10.20;6.63;;;;;;;1.46;100.00;102170.09;5061611;28;20242;-54
2021/12/21 03:31:02;;;;;;;10.17;6.30;;;;;;;1.54;100.00;102157.59;5061259;28;20234;-55
2021/12/21 03:33:28;;;;;;;11.63;7.73;;;;;;;1.57;100.00;102162.94;5061557;28;20242;-53
2021/12/21 03:35:55;;;;;;;10.07;7.57;;;;;;;1.59;100.00;102156.19;5064702;28;20250;-56
2021/12/21 03:38:21;;;;;;;9.87;7.10;;;;;;;1.57;100.00;102152.59;5059232;28;20508;-57
2021/12/21 03:40:47;;;;;;;10.37;7.33;;;;;;;1.58;100.00;102149.19;5062580;28;20227;-54
2021/12/21 03:43:15;;;;;;;13.07;8.30;;;;;;;1.71;100.00;102145.63;5064703;28;20283;-55
2021/12/21 03:45:51;;;;;;;9.13;7.57;;;;;;;1.59;100.00;102148.41;5065369;28;20235;-56
2021/12/21 03:48:17;;;;;;;12.20;9.23;;;;;;;1.65;100.00;102148.75;5063052;28;20275;-56
2021/12/21 03:50:43;;;;;;;11.43;7.83;;;;;;;1.52;100.00;102143.69;5065722;28;20307;-55
2021/12/21 03:53:10;;;;;;;13.33;8.93;;;;;;;1.47;100.00;102147.69;5057665;28;20319;-53
2021/12/21 03:55:36;;;;;;;9.97;8.60;;;;;;;1.52;100.00;102148.88;5059072;28;20335;-53
2021/12/21 03:58:02;;;;;;;11.13;8.67;;;;;;;1.48;100.00;102150.38;5060938;28;20250;-56
2021/12/21 04:00:31;;;;;;;10.77;7.20;;;;;;;1.51;100.00;102144.47;5060565;28;20319;-52
2021/12/21 04:02:57;;;;;;;16.87;8.97;;;;;;;1.57;100.00;102147.41;5056200;28;20230;-53
2021/12/21 04:05:23;;;;;;;16.70;8.47;;;;;;;1.55;100.00;102149.03;5053218;28;20620;-52
2021/12/21 04:07:50;;;;;;;12.73;7.80;;;;;;;1.50;100.00;102147.88;5042981;28;20293;-54
2021/12/21 04:10:16;;;;;;;12.90;7.93;;;;;;;1.43;100.00;102150.09;5048715;28;20254;-54
2021/12/21 04:12:42;;;;;;;17.20;8.33;;;;;;;1.45;100.00;102151.91;5048849;28;20262;-56
2021/12/21 04:15:10;;;;;;;10.23;8.20;;;;;;;1.45;100.00;102157.06;5056806;28;20246;-55
2021/12/21 04:17:37;;;;;;;11.27;8.47;;;;;;;1.50;100.00;102150.47;5052519;28;20271;-56
2021/12/21 04:20:05;;;;;;;13.40;9.50;;;;;;;1.53;100.00;102150.63;5053094;28;20239;-53
2021/12/21 04:22:31;;;;;;;10.70;9.20;;;;;;;1.48;100.00;102155.56;5048563;28;20234;-57
2021/12/21 04:24:57;;;;;;;12.50;10.30;;;;;;;1.52;100.00;102152.34;5057068;28;20722;-54
2021/12/21 04:27:23;;;;;;;11.57;8.87;;;;;;;1.58;100.00;102154.38;5057064;28;20306;-54
2021/12/21 04:29:50;;;;;;;17.50;10.93;;;;;;;1.38;100.00;102158.41;5052456;28;20557;-57
2021/12/21 04:32:16;;;;;;;16.47;10.20;;;;;;;1.47;100.00;102150.28;5053218;28;20233;-56
2021/12/21 04:34:44;;;;;;;15.30;9.53;;;;;;;1.51;100.00;102155.75;5047236;28;20247;-57
2021/12/21 04:37:12;;;;;;;16.83;10.07;;;;;;;1.55;100.00;102159.41;5055319;28;20287;-57
2021/12/21 04:39:43;;;;;;;18.43;10.87;;;;;;;1.47;100.00;102155.44;5062778;28;20243;-58
2021/12/21 04:42:10;;;;;;;12.77;10.10;;;;;;;1.45;100.00;102147.59;5046449;28;20238;-55
2021/12/21 04:44:36;;;;;;;13.10;9.57;;;;;;;1.43;100.00;102154.38;5049821;28;20262;-57
2021/12/21 04:47:03;;;;;;;13.90;10.47;;;;;;;1.46;100.00;102153.66;5060613;28;20236;-59
2021/12/21 04:49:30;;;;;;;15.63;10.80;;;;;;;1.36;100.00;102155.69;5035894;28;20316;-55
2021/12/21 04:51:57;;;;;;;12.30;9.87;;;;;;;1.59;100.00;102156.19;5050790;28;20392;-55
2021/12/21 04:54:24;;;;;;;11.83;10.63;;;;;;;1.50;100.00;102155.63;5050994;28;20243;-53
2021/12/21 04:56:50;;;;;;;18.50;10.93;;;;;;;1.51;100.00;102149.63;5056592;28;20612;-54
2021/12/21 04:59:16;;;;;;;20.87;10.40;;;;;;;1.40;100.00;102159.38;5053645;28;20238;-53
2021/12/21 05:01:43;;;;;;;17.00;10.17;;;;;;;1.44;100.00;102161.34;5057625;28;20262;-53
2021/12/21 05:04:10;;;;;;;12.20;10.70;;;;;;;1.50;100.00;102160.81;5039906;28;20722;-53
2021/12/21 05:06:36;;;;;;;14.77;10.20;;;;;;;1.50;100.00;102153.03;5056373;28;20250;-57
2021/12/21 05:09:09;;;;;;;16.40;10.43;;;;;;;1.56;100.00;102156.00;5059888;28;20308;-52
2021/12/21 05:11:36;;;;;;;17.13;10.20;;;;;;;1.59;100.00;102156.19;5057678;28;20425;-55
2021/12/21 05:14:07;;;;;;;13.07;10.17;;;;;;;1.51;100.00;102175.53;5045880;28;20239;-55
2021/12/21 05:16:33;;;;;;;12.00;10.40;;;;;;;1.37;100.00;102170.44;5054035;28;20226;-55
2021/12/21 05:19:00;;;;;;;15.67;10.80;;;;;;;1.44;100.00;102169.13;5043192;28;20243;-53
2021/12/21 05:21:26;;;;;;;19.73;11.20;;;;;;;1.38;100.00;102167.06;5047089;28;20593;-55
2021/12/21 05:23:52;;;;;;;16.10;11.47;;;;;;;1.39;100.00;102166.25;5048068;28;20254;-55
2021/12/21 05:26:20;;;;;;;18.63;11.90;;;;;;;1.33;100.00;102164.97;5064584;28;24847;-55
2021/12/21 05:28:46;;;;;;;15.53;11.37;;;;;;;1.35;100.00;102166.88;5057555;28;20255;-53
2021/12/21 05:31:13;;;;;;;16.67;11.03;;;;;;;1.41;100.00;102172.41;5047683;28;20288;-55
2021/12/21 05:33:39;;;;;;;18.77;12.03;;;;;;;1.43;100.00;102168.19;5053764;28;20270;-54
2021/12/21 05:36:05;;;;;;;13.43;10.50;;;;;;;1.33;100.00;102173.63;5063250;28;20254;-55
2021/12/21 05:38:34;;;;;;;14.13;10.77;;;;;;;1.34;100.00;102159.91;5043786;28;20235;-56
2021/12/21 05:41:03;;;;;;;24.63;12.43;;;;;;;1.43;100.00;102170.78;5063191;28;20321;-55
2021/12/21 05:43:31;;;;;;;19.00;13.07;;;;;;;1.30;100.00;102167.38;5060708;28;20291;-53
2021/12/21 05:45:57;;;;;;;13.37;11.20;;;;;;;1.33;100.00;102163.28;5056335;28;20229;-54
2021/12/21 05:48:24;;;;;;;17.30;11.87;;;;;;;1.31;100.00;102164.91;5060539;28;20710;-57
2021/12/21 05:50:50;;;;;;;17.47;11.00;;;;;;;1.33;100.00;102165.88;5056484;28;20363;-57
2021/12/21 05:53:16;;;;;;;21.33;10.97;;;;;;;1.32;100.00;102161.50;5062720;28;20718;-55
2021/12/21 05:55:43;;;;;;;17.23;11.90;;;;;;;1.36;100.00;102171.22;5048525;28;20262;-57
2021/12/21 05:58:09;;;;;;;17.83;11.77;;;;;;;1.35;100.00;102179.81;5056454;28;20334;-53
2021/12/21 06:00:37;;;;;;;18.67;11.67;;;;;;;1.36;100.00;102180.69;5062494;28;20326;-54
2021/12/21 06:03:03;;;;;;;19.87;12.97;;;;;;;1.40;100.00;102181.00;5062132;28;20644;-54
2021/12/21 06:05:30;;;;;;;22.63;13.10;;;;;;;1.34;100.00;102178.03;5062690;28;20320;-55
2021/12/21 06:07:56;;;;;;;17.03;11.97;;;;;;;1.36;100.00;102184.16;5064983;28;20314;-54
2021/12/21 06:10:27;;;;;;;19.17;12.30;;;;;;;1.35;100.00;102177.22;5061445;28;20265;-53
2021/12/21 06:13:23;;;;;;;18.77;11.70;;;;;;;1.32;100.00;102182.19;5065306;28;20237;-56
2021/12/21 06:16:08;;;;;;;18.70;11.87;;;;;;;1.39;100.00;102181.78;5057553;28;21330;-52
2021/12/21 06:27:10;;;;;;;16.77;13.23;;;;;;;1.28;100.00;102189.69;5104787;27;20600;-54
2021/12/21 06:29:37;;;;;;;18.50;12.10;;;;;;;1.29;100.00;102187.19;5101298;27;20622;-55
2021/12/21 06:32:05;;;;;;;18.03;11.67;;;;;;;1.29;100.00;102191.47;5092125;27;20306;-51
2021/12/21 06:34:31;;;;;;;18.20;12.93;;;;;;;1.24;100.00;102183.44;5087381;27;20262;-55
2021/12/21 06:36:58;;;;;;;21.17;12.30;;;;;;;1.30;100.00;102186.41;5088415;28;20237;-59
2021/12/21 06:39:26;;;;;;;18.70;13.00;;;;;;;1.27;100.00;102188.81;5084657;27;20295;-57
2021/12/21 06:44:34;;;;;;;21.87;11.70;;;;;;;1.34;100.00;102185.78;5078454;28;20226;-54
2021/12/21 06:51:11;;;;;;;18.17;11.00;;;;;;;1.32;100.00;102189.06;5078816;28;20702;-52
2021/12/21 06:52:40;;;;;;;17.00;11.73;;;;;;;1.43;100.00;102180.25;5081203;28;20239;-53
2021/12/21 06:55:08;;;;;;;20.30;12.43;;;;;;;1.51;100.00;102191.06;5085025;28;20477;-54
2021/12/21 06:57:37;;;;;;;17.30;11.10;;;;;;;1.52;100.00;102190.28;5088959;28;20229;-53
2021/12/21 07:00:06;;;;;;;16.00;11.23;;;;;;;1.54;100.00;102199.00;5079262;28;20641;-54
2021/12/21 07:02:33;;;;;;;21.27;11.23;;;;;;;1.42;100.00;102194.00;5080637;28;20276;-54
2021/12/21 07:05:00;;;;;;;23.27;13.50;;;;;;;1.46;100.00;102200.25;5080829;28;20237;-54
2021/12/21 07:07:27;;;;;;;16.40;11.50;;;;;;;1.33;100.00;102199.50;5093840;28;20693;-56
2021/12/21 07:09:59;;;;;;;17.27;11.70;;;;;;;1.28;100.00;102195.75;5084480;28;20748;-55
2021/12/21 07:17:48;;;;;;;16.73;10.27;;;;;;;1.33;100.00;102199.50;5081472;28;20241;-56
2021/12/21 07:18:10;;;;;;;18.40;11.73;;;;;;;1.35;100.00;102202.19;5085931;28;20243;-56
2021/12/21 07:20:37;;;;;;;22.47;13.03;;;;;;;1.24;100.00;102192.91;5078452;28;20237;-54
2021/12/21 07:23:04;;;;;;;19.97;14.50;;;;;;;1.38;100.00;102203.28;5100259;28;20662;-58
2021/12/21 07:25:30;;;;;;;23.17;11.80;;;;;;;1.38;100.00;102197.22;5086906;28;20249;-54
2021/12/21 07:27:57;;;;;;;23.30;11.83;;;;;;;1.42;100.00;102212.13;5085640;28;20227;-55
2021/12/21 07:30:25;;;;;;;24.83;11.20;;;;;;;1.33;100.00;102202.09;5088338;28;20241;-55
2021/12/21 07:32:51;;;;;;;17.63;11.30;;;;;;;1.38;100.00;102203.28;5090062;28;20287;-55
2021/12/21 07:35:18;;;;;;;16.47;10.90;;;;;;;1.32;100.00;102208.06;5086180;28;20295;-55
2021/12/21 07:37:44;;;;;;;15.63;10.83;;;;;;;1.36;100.00;102210.03;5085153;28;20692;-54
2021/12/21 07:40:11;;;;;;;22.63;11.90;;;;;;;1.49;100.00;102205.63;5070824;28;20725;-54
2021/12/21 07:42:38;;;;;;;16.73;11.77;;;;;;;1.62;100.00;102211.59;5069031;28;20851;-55
2021/12/21 07:45:05;;;;;;;18.67;11.70;;;;;;;1.53;100.00;102211.06;5066226;28;20719;-54
2021/12/21 07:47:33;;;;;;;19.53;11.00;;;;;;;1.49;100.00;102219.44;5080718;28;20605;-55
2021/12/21 07:50:00;;;;;;;13.03;10.17;;;;;;;1.51;100.00;102216.94;5069209;28;20227;-55
2021/12/21 07:52:27;;;;;;;19.63;11.27;;;;;;;1.57;100.00;102214.72;5078682;28;20241;-54
2021/12/21 07:54:53;;;;;;;20.70;11.63;;;;;;;1.52;100.00;102208.38;5078931;28;20862;-54
2021/12/21 07:57:19;;;;;;;17.10;11.43;;;;;;;1.46;100.00;102206.31;5072484;28;20223;-54
2021/12/21 07:59:47;;;;;;;18.20;10.60;;;;;;;1.46;100.00;102208.00;5072590;28;20745;-54
2021/12/21 08:02:14;;;;;;;16.37;10.10;;;;;;;1.54;100.00;102211.94;5085177;28;20237;-57
2021/12/21 08:04:43;;;;;;;15.97;10.70;;;;;;;1.50;100.00;102205.69;5076005;28;20722;-54
2021/12/21 08:07:13;;;;;;;16.37;11.37;;;;;;;1.48;100.00;102217.66;5066277;28;20726;-55
2021/12/21 08:09:43;;;;;;;17.93;10.73;;;;;;;1.49;100.00;102215.97;5070417;28;20236;-56
2021/12/21 08:12:15;;;;;;;12.67;10.00;;;;;;;1.58;100.00;102212.25;5074764;28;20664;-53
2021/12/21 08:14:42;;;;;;;15.03;10.13;;;;;;;1.68;100.00;102208.47;5080839;28;20249;-56
2021/12/21 08:17:08;;;;;;;15.57;9.60;;;;;;;1.61;100.00;102216.69;5078885;28;20319;-56
2021/12/21 08:19:35;;;;;;;18.67;11.17;;;;;;;1.63;100.00;102215.09;5087776;28;20251;-54
2021/12/21 08:22:03;;;;;;;14.53;9.53;;;;;;;1.64;100.00;102222.03;5082515;28;20238;-58
2021/12/21 08:24:30;;;;;;;17.90;9.73;;;;;;;1.63;100.00;102226.31;5091634;28;20244;-56
2021/12/21 08:26:58;;;;;;;10.23;7.97;;;;;;;1.51;100.00;102219.53;5078413;28;20225;-52
2021/12/21 08:29:25;;;;;;;10.93;8.30;;;;;;;1.43;100.00;102222.53;5069604;28;20226;-57
2021/12/21 08:31:51;;;;;;;14.33;9.10;;;;;;;1.55;100.00;102231.88;5064050;28;20249;-54
2021/12/21 08:34:18;;;;;;;14.53;9.03;;;;;;;1.55;100.00;102221.53;5075995;28;20239;-55
2021/12/21 08:36:44;;;;;;;14.80;8.40;;;;;;;1.52;100.00;102232.56;5063226;28;20234;-52
2021/12/21 08:39:12;;;;;;;17.93;9.00;;;;;;;1.51;100.00;102240.22;5081905;28;20233;-53
2021/12/21 08:41:42;;;;;;;14.90;8.43;;;;;;;1.54;100.00;102235.25;5073479;28;20283;-56
2021/12/21 08:44:10;;;;;;;11.80;7.90;;;;;;;1.33;100.00;102238.31;5069190;28;20245;-55
2021/12/21 08:46:36;;;;;;;13.10;8.67;;;;;;;1.51;100.00;102240.22;5074728;28;20262;-55
2021/12/21 08:49:02;;;;;;;14.13;8.73;;;;;;;1.40;100.00;102234.41;5075766;28;20721;-59
2021/12/21 08:51:29;;;;;;;10.93;8.47;;;;;;;1.37;100.00;102240.31;5077716;28;20650;-55
2021/12/21 08:53:55;;;;;;;19.60;10.63;;;;;;;1.39;100.00;102238.69;5077288;28;20264;-56
2021/12/21 08:56:23;;;;;;;16.83;10.70;;;;;;;1.50;100.00;102228.09;5062925;28;20241;-53
2021/12/21 08:58:49;;;;;;;14.40;8.23;;;;;;;1.50;100.00;102228.09;5054598;28;20233;-54
2021/12/21 09:01:17;;;;;;;13.30;9.67;;;;;;;1.48;100.00;102225.44;5064370;28;20699;-53
2021/12/21 09:03:45;;;;;;;14.63;9.10;;;;;;;1.57;100.00;102236.31;5060157;28;20277;-55
2021/12/21 09:06:11;;;;;;;21.40;10.13;;;;;;;1.53;100.00;102229.16;5066190;28;20251;-56
2021/12/21 09:08:38;;;;;;;14.90;9.37;;;;;;;1.48;100.00;102230.59;5059792;28;20234;-53
2021/12/21 09:11:05;;;;;;;10.57;8.37;;;;;;;1.38;100.00;102236.03;5059024;28;20226;-56
2021/12/21 09:13:33;;;;;;;13.50;8.40;;;;;;;1.35;100.00;102234.13;5063131;28;20242;-54
2021/12/21 09:16:00;;;;;;;14.07;8.63;;;;;;;1.37;100.00;102237.72;5063119;28;20303;-55
2021/12/21 09:18:26;;;;;;;12.13;9.43;;;;;;;1.38;100.00;102238.63;5064069;28;20803;-56
2021/12/21 09:20:53;;;;;;;14.60;9.63;;;;;;;1.50;100.00;102230.69;5068804;28;20717;-56
2021/12/21 09:23:19;;;;;;;20.43;10.77;;;;;;;1.72;100.00;102238.03;5065029;28;20750;-56
2021/12/21 09:25:45;;;;;;;18.33;9.97;;;;;;;1.76;100.00;102243.50;5065660;28;20287;-55
2021/12/21 09:28:12;;;;;;;15.73;10.23;;;;;;;1.85;100.00;102238.84;5071397;28;20664;-55
2021/12/21 09:30:40;;;;;;;16.10;10.30;;;;;;;1.65;100.00;102236.75;5066600;28;20283;-55
2021/12/21 09:33:06;;;;;;;19.50;11.07;;;;;;;1.60;100.00;102243.38;5064433;28;20246;-55
2021/12/21 09:35:33;;;;;;;16.33;10.00;;;;;;;1.59;100.00;102244.19;5068041;28;20283;-54
2021/12/21 09:37:59;;;;;;;13.67;9.03;;;;;;;1.79;100.00;102246.28;5071673;28;20241;-54
2021/12/21 09:40:28;;;;;;;11.83;8.67;;;;;;;1.59;100.00;102239.00;5081500;28;20298;-53
2021/12/21 09:42:55;;;;;;;14.17;9.53;;;;;;;1.61;100.00;102246.03;5064610;28;20665;-56
2021/12/21 09:45:22;;;;;;;17.40;10.53;;;;;;;1.64;100.00;102245.34;5065040;28;20653;-55
2021/12/21 09:47:50;;;;;;;14.33;10.27;;;;;;;1.72;100.00;102243.19;5062302;28;20237;-55
2021/12/21 09:50:18;;;;;;;16.80;9.20;;;;;;;1.72;100.00;102246.72;5068987;28;20650;-54
2021/12/21 09:52:44;;;;;;;15.93;10.40;;;;;;;1.66;100.00;102247.22;5074705;28;20253;-51
2021/12/21 09:55:12;;;;;;;15.23;11.03;;;;;;;1.61;100.00;102243.44;5060527;28;20246;-57
2021/12/21 09:57:39;;;;;;;16.90;9.43;;;;;;;1.61;100.00;102250.31;5065804;28;20734;-54
2021/12/21 10:00:08;;;;;;;13.77;9.90;;;;;;;1.72;100.00;102246.72;5057778;28;20784;-56
2021/12/21 10:02:35;;;;;;;13.43;10.13;;;;;;;1.83;100.00;102256.00;5065322;28;20289;-55
2021/12/21 10:05:07;;;;;;;15.50;10.30;;;;;;;1.84;100.00;102247.41;5068859;28;20234;-55
2021/12/21 10:07:34;;;;;;;14.33;9.13;;;;;;;1.82;100.00;102253.28;5074024;28;20317;-55
2021/12/21 10:10:07;;;;;;;14.90;9.23;;;;;;;1.85;100.00;102249.19;5076966;28;20236;-53
2021/12/21 10:12:35;;;;;;;13.93;8.43;;;;;;;1.80;100.00;102250.63;5062605;28;20288;-57
2021/12/21 10:15:05;;;;;;;16.50;8.87;;;;;;;1.95;100.00;102245.44;5064469;28;21169;-57
2021/12/21 10:17:33;;;;;;;17.23;10.50;;;;;;;1.83;100.00;102243.03;5070951;28;20555;-57
2021/12/21 10:19:59;;;;;;;10.33;8.77;;;;;;;1.89;100.00;102251.16;5062167;28;20847;-55
2021/12/21 10:22:27;;;;;;;13.07;10.47;;;;;;;1.88;100.00;102258.84;5070882;28;20866;-56
2021/12/21 10:24:54;;;;;;;15.37;11.20;;;;;;;1.67;100.00;102253.28;5057119;28;20238;-57
2021/12/21 10:27:22;;;;;;;12.40;10.27;;;;;;;1.65;100.00;102247.13;5065328;28;20270;-56
2021/12/21 10:29:50;;;;;;;14.00;10.97;;;;;;;1.61;100.00;102255.50;5079610;28;20233;-56
2021/12/21 10:32:18;;;;;;;15.15;10.73;;;;;;;1.67;100.00;102258.47;5063522;28;20419;-56
2021/12/21 10:34:59;;;;;;;14.47;10.97;;;;;;;1.60;100.00;102254.63;5071749;28;20646;-58
2021/12/21 10:37:29;;;;;;;14.80;10.57;;;;;;;1.60;100.00;102248.56;5074058;28;20241;-57
2021/12/21 10:40:12;;;;;;;14.57;10.27;;;;;;;1.71;100.00;102255.25;5064933;28;20717;-56
2021/12/21 10:42:49;;;;;;;13.83;10.17;;;;;;;1.74;100.00;102249.38;5078003;28;20225;-55
2021/12/21 10:45:16;;;;;;;15.03;10.17;;;;;;;1.75;100.00;102245.97;5076233;28;20610;-57
2021/12/21 10:47:45;;;;;;;17.17;10.20;;;;;;;1.75;100.00;102245.97;5075109;28;20253;-57
2021/12/21 10:50:11;;;;;;;14.43;9.73;;;;;;;1.63;100.00;102244.44;5084707;28;20770;-57
2021/12/21 10:52:42;;;;;;;11.73;8.80;;;;;;;1.43;100.00;102247.53;5088311;28;20237;-58
2021/12/21 10:55:08;;;;;;;13.73;8.63;;;;;;;1.31;100.00;102246.81;5098542;28;20264;-56
2021/12/21 10:57:36;;;;;;;9.63;7.93;;;;;;;1.46;100.00;102246.84;5089707;28;20268;-57
2021/12/21 11:00:07;;;;;;;12.70;9.03;;;;;;;1.55;100.00;102243.13;5088562;28;20226;-57
2021/12/21 11:02:35;;;;;;;18.33;10.43;;;;;;;1.81;100.00;102242.06;5074132;28;20230;-56
2021/12/21 11:05:03;;;;;;;19.40;11.83;;;;;;;1.67;100.00;102238.66;5068056;28;20299;-56
2021/12/21 11:07:36;;;;;;;14.93;11.23;;;;;;;1.81;100.00;102246.34;5066367;28;20257;-55
2021/12/21 11:10:11;;;;;;;12.97;9.67;;;;;;;1.84;100.00;102246.53;5068734;28;20288;-55
2021/12/21 11:12:42;;;;;;;11.27;8.63;;;;;;;1.55;100.00;102244.81;5063980;28;20266;-55
2021/12/21 11:15:10;;;;;;;15.97;9.60;;;;;;;1.60;100.00;102240.78;5074717;28;20322;-54
2021/12/21 11:17:37;;;;;;;9.03;7.80;;;;;;;1.70;100.00;102244.81;5073659;28;20241;-55
2021/12/21 11:20:04;;;;;;;10.70;7.87;;;;;;;1.58;100.00;102239.78;5068847;28;20257;-58
2021/12/21 11:22:32;;;;;;;14.07;9.02;;;;;;;1.53;100.00;102236.94;5068000;28;20419;-55
2021/12/21 11:24:59;;;;;;;10.07;8.17;;;;;;;1.55;100.00;102237.03;5075884;28;20271;-55
2021/12/21 11:27:27;;;;;;;11.20;8.80;;;;;;;1.59;100.00;102239.00;5048837;28;20589;-54
2021/12/21 11:29:56;;;;;;;13.43;8.80;;;;;;;1.51;100.00;102228.22;5059223;28;20246;-54
2021/12/21 11:32:23;;;;;;;10.83;8.13;;;;;;;1.54;100.00;102227.47;5064314;28;20656;-54
2021/12/21 11:37:20;;;;;;;16.90;10.07;;;;;;;1.67;100.00;102222.22;5062191;28;20307;-55
2021/12/21 11:37:46;;;;;;;9.63;7.70;;;;;;;1.74;100.00;102213.13;5062752;28;20241;-57
2021/12/21 11:40:14;;;;;;;13.40;8.50;;;;;;;1.82;100.00;102204.09;5061969;28;20575;-59
2021/12/21 11:42:56;;;;;;;10.90;8.97;;;;;;;1.71;100.00;102212.94;5062918;28;20695;-55
2021/12/21 11:45:27;;;;;;;16.33;10.63;;;;;;;1.85;100.00;102206.88;5059074;28;20346;-56
2021/12/21 11:47:56;;;;;;;13.60;9.93;;;;;;;1.77;100.00;102208.13;5061931;28;20238;-55
2021/12/21 11:50:23;;;;;;;12.23;9.70;;;;;;;1.58;100.00;102209.66;5062204;28;20827;-55
2021/12/21 11:52:51;;;;;;;13.67;9.23;;;;;;;1.53;100.00;102210.16;5059684;28;20308;-56
2021/12/21 11:55:20;;;;;;;10.03;7.97;;;;;;;1.45;100.00;102208.81;5061470;28;20246;-56